createdAt,value
2019-05-03T00:02:26.623Z,94.00
2019-05-03T00:05:12.501Z,93.50
2019-05-03T00:07:42.145Z,93.50
2019-05-03T00:10:12.854Z,94.10
2019-05-03T00:12:42.226Z,94.20
2019-05-03T00:15:18.904Z,92.30
2019-05-03T00:17:47.802Z,92.00
2019-05-03T00:20:16.655Z,91.80
2019-05-03T00:22:45.678Z,91.50
2019-05-03T00:25:14.493Z,91.80
2019-05-03T00:27:43.306Z,92.20
2019-05-03T00:30:12.268Z,92.30
2019-05-03T00:32:42.741Z,92.00
2019-05-03T00:35:16.089Z,91.60
2019-05-03T00:37:47.081Z,92.50
2019-05-03T00:40:27.086Z,92.00
2019-05-03T00:42:56.180Z,92.00
2019-05-03T00:45:25.294Z,91.80
2019-05-03T00:47:54.090Z,91.90
2019-05-03T00:50:23.455Z,91.60
2019-05-03T00:52:52.465Z,91.70
2019-05-03T00:55:22.043Z,91.60
2019-05-03T00:57:52.154Z,92.40
2019-05-03T01:00:21.875Z,92.40
2019-05-03T01:02:51.749Z,92.70
2019-05-03T01:05:22.536Z,92.70
2019-05-03T01:07:52.614Z,92.10
2019-05-03T01:10:22.570Z,91.60
2019-05-03T01:12:52.401Z,92.00
2019-05-03T01:15:42.408Z,92.10
2019-05-03T01:18:13.550Z,91.70
2019-05-03T01:20:42.710Z,91.20
2019-05-03T01:23:12.459Z,91.20
2019-05-03T01:25:42.882Z,91.30
2019-05-03T01:28:12.234Z,90.60
2019-05-03T01:30:42.471Z,90.70
2019-05-03T01:33:12.113Z,90.70
2019-05-03T01:35:42.723Z,90.30
2019-05-03T01:38:11.904Z,90.10
2019-05-03T01:40:41.943Z,90.20
2019-05-03T01:43:11.674Z,90.70
2019-05-03T01:45:42.365Z,90.90
2019-05-03T01:48:21.682Z,90.50
2019-05-03T01:51:15.404Z,90.30
2019-05-03T01:53:44.220Z,90.70
2019-05-03T01:56:12.935Z,90.90
2019-05-03T01:58:41.935Z,91.20
2019-05-03T02:01:22.099Z,91.00
2019-05-03T02:03:58.065Z,91.60
2019-05-03T02:06:26.861Z,91.90
2019-05-03T02:08:55.928Z,91.90
2019-05-03T02:11:25.131Z,92.10
2019-05-03T02:13:53.952Z,91.80
2019-05-03T02:16:22.914Z,91.20
2019-05-03T02:18:51.940Z,90.90
2019-05-03T02:21:21.661Z,91.00
2019-05-03T02:23:52.039Z,91.50
2019-05-03T02:26:22.422Z,90.90
2019-05-03T02:28:52.765Z,90.50
2019-05-03T02:31:23.248Z,90.60
2019-05-03T02:33:53.355Z,91.10
2019-05-03T02:36:23.361Z,90.70
2019-05-03T02:38:53.513Z,91.00
2019-05-03T02:41:22.873Z,92.50
2019-05-03T02:43:55.782Z,92.70
2019-05-03T02:46:32.592Z,91.90
2019-05-03T02:49:07.820Z,91.70
2019-05-03T02:51:37.135Z,92.50
2019-05-03T02:54:06.538Z,92.30
2019-05-03T02:56:35.887Z,93.00
2019-05-03T02:59:06.181Z,93.20
2019-05-03T03:01:36.042Z,92.60
2019-05-03T03:04:05.563Z,93.20
2019-05-03T03:06:36.658Z,94.10
2019-05-03T03:09:06.748Z,93.90
2019-05-03T03:11:39.110Z,94.10
2019-05-03T03:14:10.461Z,93.70
2019-05-03T03:16:41.289Z,93.20
2019-05-03T03:19:12.242Z,93.60
2019-05-03T03:21:46.617Z,93.80
2019-05-03T03:24:19.728Z,94.40
2019-05-03T03:26:51.548Z,94.40
2019-05-03T03:29:25.285Z,93.70
2019-05-03T03:32:09.463Z,92.70
2019-05-03T03:34:54.341Z,92.60
2019-05-03T03:37:15.596Z,93.40
2019-05-03T03:39:45.720Z,93.00
2019-05-03T03:42:16.111Z,92.80
2019-05-03T03:44:46.829Z,93.30
2019-05-03T03:47:16.699Z,92.80
2019-05-03T03:49:46.571Z,92.80
2019-05-03T03:52:17.322Z,92.40
2019-05-03T03:54:47.986Z,92.70
2019-05-03T03:57:18.707Z,92.20
2019-05-03T03:59:48.165Z,92.00
2019-05-03T04:02:17.677Z,91.80
2019-05-03T04:04:46.588Z,91.40
2019-05-03T04:07:16.151Z,91.50
2019-05-03T04:09:45.911Z,91.40
2019-05-03T04:12:16.445Z,90.70
2019-05-03T04:14:51.573Z,90.30
2019-05-03T04:17:45.457Z,90.20
2019-05-03T04:20:16.288Z,90.00
2019-05-03T04:22:45.560Z,88.20
2019-05-03T04:25:15.325Z,87.30
2019-05-03T04:27:45.544Z,88.10
2019-05-03T04:30:16.567Z,88.00
2019-05-03T04:32:45.667Z,88.90
2019-05-03T04:35:16.426Z,88.50
2019-05-03T04:37:45.614Z,89.30
2019-05-03T04:40:15.707Z,90.50
2019-05-03T04:42:46.546Z,89.90
2019-05-03T04:45:16.490Z,89.30
2019-05-03T04:47:46.441Z,89.50
2019-05-03T04:50:16.612Z,89.60
2019-05-03T04:52:46.659Z,89.60
2019-05-03T04:55:16.172Z,89.60
2019-05-03T04:57:49.127Z,89.60
2019-05-03T05:00:16.259Z,90.30
2019-05-03T05:02:45.767Z,90.00
2019-05-03T05:05:15.649Z,91.10
2019-05-03T05:07:45.698Z,91.50
2019-05-03T05:10:15.557Z,90.80
2019-05-03T05:12:45.735Z,91.60
2019-05-03T05:15:15.811Z,91.60
2019-05-03T05:17:56.250Z,92.40
2019-05-03T05:20:50.409Z,92.00
2019-05-03T05:23:19.416Z,92.10
2019-05-03T05:25:57.421Z,92.10
2019-05-03T05:28:49.667Z,92.30
2019-05-03T05:31:18.744Z,92.20
2019-05-03T05:33:47.755Z,92.20
2019-05-03T05:36:16.491Z,92.40
2019-05-03T05:38:45.230Z,92.30
2019-05-03T05:41:15.628Z,91.70
2019-05-03T05:43:44.793Z,91.50
2019-05-03T05:46:14.637Z,92.10
2019-05-03T05:48:50.408Z,91.70
2019-05-03T05:51:19.173Z,91.00
2019-05-03T05:53:48.250Z,91.70
2019-05-03T05:56:28.245Z,91.70
2019-05-03T05:59:19.214Z,91.40
2019-05-03T06:02:18.093Z,90.40
2019-05-03T06:04:46.901Z,89.70
2019-05-03T06:07:44.359Z,89.00
2019-05-03T06:10:24.839Z,89.10
2019-05-03T06:13:27.997Z,88.10
2019-05-03T06:16:05.045Z,88.30
2019-05-03T06:19:00.945Z,87.70
2019-05-03T06:21:35.269Z,88.20
2019-05-03T06:24:09.158Z,87.60
2019-05-03T06:26:44.323Z,86.50
2019-05-03T06:29:14.951Z,87.70
2019-05-03T06:31:51.107Z,86.60
2019-05-03T06:34:19.933Z,85.10
2019-05-03T06:36:51.512Z,84.30
2019-05-03T06:39:20.500Z,82.70
2019-05-03T06:41:49.216Z,81.90
2019-05-03T06:44:19.262Z,80.80
2019-05-03T06:46:49.409Z,81.40
2019-05-03T06:49:19.745Z,80.20
2019-05-03T06:51:49.833Z,76.70
2019-05-03T06:54:20.721Z,80.10
2019-05-03T06:56:49.770Z,80.20
2019-05-03T06:59:24.962Z,79.20
2019-05-03T07:02:15.936Z,79.40
2019-05-03T07:04:46.707Z,79.20
2019-05-03T07:07:30.599Z,77.60
2019-05-03T07:10:05.116Z,76.20
2019-05-03T07:12:51.717Z,79.00
2019-05-03T07:15:21.021Z,76.00
2019-05-03T07:17:49.787Z,74.80
2019-05-03T07:20:18.813Z,77.20
2019-05-03T07:22:47.828Z,77.70
2019-05-03T07:25:17.113Z,75.70
2019-05-03T07:27:46.013Z,72.20
2019-05-03T07:30:16.610Z,70.50
2019-05-03T07:32:47.559Z,71.60
2019-05-03T07:35:16.678Z,70.30
2019-05-03T07:37:45.465Z,70.00
2019-05-03T07:40:14.891Z,72.30
2019-05-03T07:42:44.895Z,71.30
2019-05-03T07:45:14.950Z,69.00
2019-05-03T07:47:45.226Z,73.50
2019-05-03T07:50:15.374Z,72.70
2019-05-03T07:52:45.127Z,72.10
2019-05-03T07:55:14.971Z,71.10
2019-05-03T07:57:49.446Z,71.60
2019-05-03T08:00:22.116Z,70.70
2019-05-03T08:02:50.860Z,66.60
2019-05-03T08:05:19.591Z,69.00
2019-05-03T08:07:48.377Z,66.40
2019-05-03T08:10:17.315Z,67.00
2019-05-03T08:12:46.063Z,67.00
2019-05-03T08:15:15.705Z,68.50
2019-05-03T08:17:46.092Z,69.00
2019-05-03T08:20:14.942Z,69.70
2019-05-03T08:22:44.785Z,70.40
2019-05-03T08:25:14.629Z,69.80
2019-05-03T08:27:44.629Z,70.50
2019-05-03T08:30:17.002Z,67.90
2019-05-03T08:32:57.902Z,69.10
2019-05-03T08:35:33.185Z,65.10
2019-05-03T08:38:04.832Z,66.30
2019-05-03T08:40:37.376Z,66.40
2019-05-03T08:43:06.304Z,64.20
2019-05-03T08:45:35.122Z,66.80
2019-05-03T08:48:05.552Z,64.40
2019-05-03T08:50:34.879Z,63.10
2019-05-03T08:53:05.142Z,62.00
2019-05-03T08:55:35.271Z,63.70
2019-05-03T08:58:05.238Z,61.90
2019-05-03T09:00:36.807Z,59.60
2019-05-03T09:03:05.934Z,63.10
2019-05-03T09:05:35.987Z,62.70
2019-05-03T09:08:05.748Z,62.30
2019-05-03T09:10:49.693Z,62.70
2019-05-03T09:13:19.853Z,62.50
2019-05-03T09:15:48.929Z,61.30
2019-05-03T09:18:17.737Z,62.60
2019-05-03T09:20:46.616Z,62.60
2019-05-03T09:23:15.536Z,61.60
2019-05-03T09:25:45.834Z,56.30
2019-05-03T09:28:15.087Z,57.10
2019-05-03T09:30:44.750Z,56.60
2019-05-03T09:33:15.395Z,58.50
2019-05-03T09:35:45.769Z,57.90
2019-05-03T09:38:15.130Z,59.70
2019-05-03T09:40:45.440Z,58.20
2019-05-03T09:43:15.107Z,57.20
2019-05-03T09:45:45.766Z,56.60
2019-05-03T09:48:15.214Z,55.60
2019-05-03T09:50:45.156Z,57.40
2019-05-03T09:53:16.042Z,59.90
2019-05-03T09:55:44.925Z,57.70
2019-05-03T09:58:15.327Z,59.80
2019-05-03T10:00:45.231Z,60.20
2019-05-03T10:03:14.322Z,60.70
2019-05-03T10:05:45.654Z,56.60
2019-05-03T10:08:15.786Z,57.30
2019-05-03T10:11:05.289Z,58.70
2019-05-03T10:13:35.404Z,57.80
2019-05-03T10:16:06.003Z,56.70
2019-05-03T10:18:35.052Z,56.90
2019-05-03T10:21:05.376Z,57.40
2019-05-03T10:23:39.654Z,57.00
2019-05-03T10:26:08.966Z,58.00
2019-05-03T10:28:37.946Z,58.00
2019-05-03T10:31:07.761Z,59.00
2019-05-03T10:33:45.193Z,56.50
2019-05-03T10:36:15.375Z,53.90
2019-05-03T10:38:46.032Z,55.50
2019-05-03T10:41:15.014Z,54.10
2019-05-03T10:43:45.121Z,54.60
2019-05-03T10:46:15.887Z,54.80
2019-05-03T10:48:45.369Z,55.40
2019-05-03T10:51:15.672Z,55.10
2019-05-03T10:53:47.264Z,52.70
2019-05-03T10:56:22.824Z,53.80
2019-05-03T10:59:03.208Z,54.80
2019-05-03T11:01:41.152Z,50.60
2019-05-03T11:04:10.059Z,53.20
2019-05-03T11:06:38.990Z,52.30
2019-05-03T11:09:08.681Z,52.10
2019-05-03T11:11:37.817Z,50.50
2019-05-03T11:14:06.966Z,49.40
2019-05-03T11:16:35.787Z,46.70
2019-05-03T11:19:05.469Z,48.40
2019-05-03T11:21:35.028Z,48.10
2019-05-03T11:24:04.590Z,50.40
2019-05-03T11:26:34.965Z,50.30
2019-05-03T11:29:05.183Z,53.30
2019-05-03T11:31:52.453Z,54.70
2019-05-03T11:34:25.329Z,53.90
2019-05-03T11:37:14.462Z,52.10
2019-05-03T11:39:45.098Z,49.70
2019-05-03T11:42:15.603Z,51.00
2019-05-03T11:44:44.617Z,50.10
2019-05-03T11:47:15.031Z,50.30
2019-05-03T11:49:45.435Z,49.90
2019-05-03T11:52:15.787Z,47.20
2019-05-03T11:54:45.420Z,47.00
2019-05-03T11:57:21.808Z,47.70
2019-05-03T11:59:50.658Z,50.60
2019-05-03T12:02:38.509Z,49.30
2019-05-03T12:05:12.189Z,45.40
2019-05-03T12:07:40.948Z,45.90
2019-05-03T12:10:29.946Z,48.40
2019-05-03T12:12:44.037Z,50.20
2019-05-03T12:15:15.133Z,51.70
2019-05-03T12:17:54.381Z,49.50
2019-05-03T12:20:19.271Z,46.60
2019-05-03T12:22:48.521Z,47.50
2019-05-03T12:25:18.819Z,47.70
2019-05-03T12:27:48.113Z,46.70
2019-05-03T12:30:17.178Z,45.60
2019-05-03T12:32:46.139Z,45.20
2019-05-03T12:35:15.454Z,46.50
2019-05-03T12:37:44.241Z,48.20
2019-05-03T12:40:14.911Z,47.90
2019-05-03T12:42:45.433Z,46.40
2019-05-03T12:45:15.382Z,46.60
2019-05-03T12:47:45.336Z,47.10
2019-05-03T12:50:15.662Z,47.50
2019-05-03T12:52:50.453Z,46.40
2019-05-03T12:55:15.537Z,46.30
2019-05-03T12:57:45.758Z,47.10
2019-05-03T13:00:47.976Z,45.80
2019-05-03T13:03:24.568Z,44.50
2019-05-03T13:05:53.073Z,41.70
2019-05-03T13:08:39.753Z,44.30
2019-05-03T13:11:08.945Z,43.30
2019-05-03T13:13:37.808Z,41.20
2019-05-03T13:16:07.231Z,41.90
2019-05-03T13:18:35.984Z,43.10
2019-05-03T13:21:06.052Z,43.70
2019-05-03T13:23:35.609Z,45.30
2019-05-03T13:26:05.682Z,45.70
2019-05-03T13:28:34.850Z,47.10
2019-05-03T13:31:05.863Z,45.50
2019-05-03T13:33:35.013Z,45.50
2019-05-03T13:36:04.804Z,44.00
2019-05-03T13:38:34.960Z,47.00
2019-05-03T13:41:06.387Z,41.40
2019-05-03T13:43:35.175Z,42.10
2019-05-03T13:46:05.129Z,43.70
2019-05-03T13:48:42.588Z,44.10
2019-05-03T13:51:05.256Z,45.20
2019-05-03T13:53:34.876Z,43.20
2019-05-03T13:56:04.782Z,42.00
2019-05-03T13:58:35.917Z,42.80
2019-05-03T14:01:05.681Z,43.30
2019-05-03T14:03:35.444Z,44.40
2019-05-03T14:06:08.858Z,45.30
2019-05-03T14:08:35.227Z,46.40
2019-05-03T14:11:06.031Z,46.10
2019-05-03T14:13:35.558Z,45.50
2019-05-03T14:16:14.293Z,47.80
2019-05-03T14:18:42.881Z,46.80
2019-05-03T14:21:24.325Z,46.40
2019-05-03T14:24:12.421Z,43.90
2019-05-03T14:26:42.204Z,45.80
2019-05-03T14:29:11.342Z,45.20
2019-05-03T14:31:40.853Z,47.30
2019-05-03T14:34:09.615Z,45.90
2019-05-03T14:36:38.360Z,47.40
2019-05-03T14:39:10.093Z,47.20
2019-05-03T14:41:40.152Z,46.30
2019-05-03T14:44:09.008Z,45.30
2019-05-03T14:46:38.311Z,45.70
2019-05-03T14:49:07.154Z,46.50
2019-05-03T14:51:36.263Z,45.60
2019-05-03T14:54:06.329Z,46.90
2019-05-03T14:56:41.791Z,46.70
2019-05-03T14:59:35.757Z,48.50
2019-05-03T15:02:11.076Z,48.30
2019-05-03T15:04:39.792Z,48.40
2019-05-03T15:07:08.561Z,47.20
2019-05-03T15:09:37.358Z,46.10
2019-05-03T15:12:06.302Z,48.10
2019-05-03T15:14:35.016Z,45.60
2019-05-03T15:17:05.329Z,47.40
2019-05-03T15:19:34.963Z,48.10
2019-05-03T15:22:05.644Z,47.30
2019-05-03T15:24:34.733Z,47.00
2019-05-03T15:27:04.845Z,47.60
2019-05-03T15:29:35.528Z,47.50
2019-05-03T15:32:05.154Z,47.50
2019-05-03T15:34:35.389Z,47.70
2019-05-03T15:37:05.428Z,46.00
2019-05-03T15:39:34.548Z,47.80
2019-05-03T15:42:05.329Z,49.00
2019-05-03T15:45:11.597Z,48.10
2019-05-03T15:48:04.406Z,48.20
2019-05-03T15:50:35.382Z,48.30
2019-05-03T15:53:04.488Z,47.80
2019-05-03T15:55:33.411Z,48.70
2019-05-03T15:58:02.352Z,47.70
2019-05-03T16:00:31.157Z,49.20
2019-05-03T16:03:08.068Z,48.30
2019-05-03T16:05:30.571Z,48.60
2019-05-03T16:07:59.638Z,46.90
2019-05-03T16:10:28.453Z,47.50
2019-05-03T16:12:57.731Z,45.80
2019-05-03T16:15:26.563Z,44.30
2019-05-03T16:17:57.063Z,45.30
2019-05-03T16:20:26.015Z,44.80
2019-05-03T16:22:54.756Z,45.40
2019-05-03T16:25:25.074Z,43.50
2019-05-03T16:28:06.021Z,40.90
2019-05-03T16:30:39.353Z,42.00
2019-05-03T16:33:08.424Z,42.40
2019-05-03T16:35:37.847Z,43.10
2019-05-03T16:38:07.067Z,43.80
2019-05-03T16:40:36.183Z,42.70
2019-05-03T16:43:05.172Z,44.00
2019-05-03T16:45:35.071Z,44.80
2019-05-03T16:48:04.525Z,43.50
2019-05-03T16:50:34.574Z,45.20
2019-05-03T16:53:05.556Z,42.20
2019-05-03T16:55:35.226Z,40.20
2019-05-03T16:58:04.628Z,38.90
2019-05-03T17:00:35.196Z,37.10
2019-05-03T17:03:05.650Z,31.80
2019-05-03T17:05:52.448Z,32.40
2019-05-03T17:08:40.392Z,34.90
2019-05-03T17:11:11.089Z,36.30
2019-05-03T17:13:39.813Z,38.40
2019-05-03T17:16:08.923Z,39.50
2019-05-03T17:18:37.969Z,41.30
2019-05-03T17:21:07.134Z,42.40
2019-05-03T17:23:36.017Z,42.10
2019-05-03T17:26:05.278Z,42.00
2019-05-03T17:28:35.339Z,42.40
2019-05-03T17:31:04.870Z,43.50
2019-05-03T17:33:34.857Z,43.60
2019-05-03T17:36:05.070Z,43.60
2019-05-03T17:38:35.178Z,44.30
2019-05-03T17:41:14.892Z,44.50
2019-05-03T17:43:50.525Z,43.70
2019-05-03T17:46:20.015Z,44.60
2019-05-03T17:48:48.956Z,45.40
2019-05-03T17:51:36.578Z,45.00
2019-05-03T17:54:25.197Z,44.80
2019-05-03T17:57:11.360Z,44.10
2019-05-03T17:59:44.638Z,45.00
2019-05-03T18:02:37.085Z,46.30
2019-05-03T18:05:25.292Z,46.30
2019-05-03T18:08:13.328Z,46.50
2019-05-03T18:10:44.597Z,46.50
2019-05-03T18:13:14.441Z,46.50
2019-05-03T18:15:44.917Z,46.00
2019-05-03T18:18:15.604Z,46.30
2019-05-03T18:20:45.007Z,45.60
2019-05-03T18:23:15.330Z,45.80
2019-05-03T18:25:44.703Z,47.00
2019-05-03T18:28:14.774Z,47.00
2019-05-03T18:30:45.475Z,46.20
2019-05-03T18:33:15.404Z,47.20
2019-05-03T18:35:44.298Z,47.90
2019-05-03T18:38:14.653Z,48.10
2019-05-03T18:40:44.819Z,48.70
2019-05-03T18:43:21.280Z,48.70
2019-05-03T18:46:17.948Z,48.60
2019-05-03T18:48:46.862Z,48.50
2019-05-03T18:51:15.630Z,48.30
2019-05-03T18:53:45.083Z,48.60
2019-05-03T18:56:15.453Z,48.20
2019-05-03T18:58:44.819Z,48.00
2019-05-03T19:01:14.850Z,47.90
2019-05-03T19:03:45.589Z,48.30
2019-05-03T19:06:14.690Z,48.90
2019-05-03T19:09:11.925Z,49.60
2019-05-03T19:11:59.895Z,49.70
2019-05-03T19:14:28.982Z,49.30
2019-05-03T19:17:15.088Z,49.20
2019-05-03T19:19:45.198Z,49.00
2019-05-03T19:22:15.399Z,49.60
2019-05-03T19:24:44.548Z,48.50
2019-05-03T19:27:13.566Z,49.90
2019-05-03T19:29:44.733Z,50.50
2019-05-03T19:32:14.853Z,49.90
2019-05-03T19:34:50.039Z,50.90
2019-05-03T19:37:14.617Z,51.10
2019-05-03T19:39:43.412Z,51.20
2019-05-03T19:42:12.197Z,51.60
2019-05-03T19:44:40.911Z,51.60
2019-05-03T19:47:09.738Z,52.00
2019-05-03T19:49:38.717Z,52.50
2019-05-03T19:52:08.717Z,52.50
2019-05-03T19:54:37.502Z,52.10
2019-05-03T19:57:06.317Z,52.30
2019-05-03T19:59:56.987Z,52.10
2019-05-03T20:02:54.441Z,51.90
2019-05-03T20:05:45.723Z,51.50
2019-05-03T20:08:24.713Z,52.00
2019-05-03T20:11:14.645Z,51.20
2019-05-03T20:13:45.137Z,51.30
2019-05-03T20:16:15.587Z,51.10
2019-05-03T20:18:45.663Z,51.10
2019-05-03T20:21:15.145Z,51.10
2019-05-03T20:23:44.836Z,51.30
2019-05-03T20:26:15.142Z,51.60
2019-05-03T20:28:44.814Z,51.40
2019-05-03T20:31:14.783Z,51.40
2019-05-03T20:33:45.589Z,51.30
2019-05-03T20:36:14.136Z,51.30
2019-05-03T20:38:44.524Z,51.20
2019-05-03T20:41:14.851Z,51.50
2019-05-03T20:44:18.279Z,51.70
2019-05-03T20:47:04.364Z,51.70
2019-05-03T20:49:34.688Z,52.00
2019-05-03T20:52:04.521Z,52.50
2019-05-03T20:54:34.964Z,52.60
2019-05-03T20:57:05.293Z,52.50
2019-05-03T20:59:43.033Z,52.50
2019-05-03T21:02:05.986Z,52.40
2019-05-03T21:04:35.466Z,52.90
2019-05-03T21:07:04.770Z,53.60
2019-05-03T21:09:34.577Z,54.00
2019-05-03T21:12:04.518Z,54.60
2019-05-03T21:14:35.093Z,54.80
2019-05-03T21:17:15.019Z,55.80
2019-05-03T21:19:51.750Z,56.30
2019-05-03T21:22:35.404Z,56.20
2019-05-03T21:25:50.738Z,56.50
2019-05-03T21:28:06.765Z,57.20
2019-05-03T21:30:35.932Z,57.60
2019-05-03T21:33:07.548Z,57.30
2019-05-03T21:35:41.659Z,57.60
2019-05-03T21:38:07.132Z,58.00
2019-05-03T21:40:37.071Z,57.90
2019-05-03T21:43:05.838Z,58.00
2019-05-03T21:45:45.354Z,57.20
2019-05-03T21:48:18.640Z,57.10
2019-05-03T21:50:47.412Z,57.70
2019-05-03T21:53:16.337Z,58.30
2019-05-03T21:55:45.163Z,59.30
2019-05-03T21:58:16.056Z,59.70
2019-05-03T22:00:58.339Z,60.00
2019-05-03T22:03:27.505Z,61.30
2019-05-03T22:05:58.092Z,62.90
2019-05-03T22:08:27.075Z,64.20
2019-05-03T22:10:56.771Z,64.50
2019-05-03T22:13:25.513Z,64.20
2019-05-03T22:16:15.388Z,64.00
2019-05-03T22:18:45.479Z,64.60
2019-05-03T22:21:29.712Z,64.80
2019-05-03T22:24:17.741Z,64.90
2019-05-03T22:26:55.703Z,64.80
2019-05-03T22:29:25.433Z,65.00
2019-05-03T22:31:54.952Z,64.10
2019-05-03T22:34:25.696Z,63.50
2019-05-03T22:36:54.852Z,62.80
2019-05-03T22:39:25.032Z,63.00
2019-05-03T22:41:54.152Z,63.20
2019-05-03T22:44:25.131Z,62.50
2019-05-03T22:46:55.105Z,62.90
2019-05-03T22:49:25.914Z,63.30
2019-05-03T22:51:54.547Z,63.60
2019-05-03T22:54:24.564Z,63.50
2019-05-03T22:56:55.452Z,63.30
2019-05-03T22:59:25.255Z,62.80
2019-05-03T23:01:54.830Z,63.30
2019-05-03T23:04:25.382Z,62.50
2019-05-03T23:06:55.617Z,62.20
2019-05-03T23:09:25.040Z,62.30
2019-05-03T23:11:55.241Z,63.10
2019-05-03T23:14:25.419Z,63.20
2019-05-03T23:16:54.585Z,64.00
2019-05-03T23:19:23.404Z,64.50
2019-05-03T23:22:15.403Z,65.30
2019-05-03T23:24:44.938Z,65.50
2019-05-03T23:27:14.413Z,67.20
2019-05-03T23:29:45.252Z,69.00
2019-05-03T23:32:15.151Z,69.90
2019-05-03T23:34:46.278Z,69.70
2019-05-03T23:37:14.983Z,69.50
2019-05-03T23:39:44.630Z,69.20
2019-05-03T23:42:15.493Z,69.40
2019-05-03T23:44:45.616Z,68.50
2019-05-03T23:47:34.493Z,69.40
2019-05-03T23:50:05.007Z,69.60
2019-05-03T23:52:36.134Z,71.60
2019-05-03T23:55:17.733Z,73.60
2019-05-03T23:57:46.539Z,76.10
